createdAt,value
2019-01-29T00:00:54.752Z,96603.47
2019-01-29T00:01:57.484Z,96600.00
2019-01-29T00:02:59.878Z,96604.52
2019-01-29T00:04:02.262Z,96604.52
2019-01-29T00:05:05.586Z,96608.78
2019-01-29T00:06:08.906Z,96607.95
2019-01-29T00:07:11.839Z,96604.52
2019-01-29T00:08:14.436Z,96607.66
2019-01-29T00:09:16.876Z,96607.66
2019-01-29T00:10:19.738Z,96608.78
2019-01-29T00:11:22.136Z,96610.11
2019-01-29T00:12:25.886Z,96612.47
2019-01-29T00:13:28.379Z,96606.63
2019-01-29T00:14:30.965Z,96605.30
2019-01-29T00:15:34.500Z,96606.63
2019-01-29T00:16:37.154Z,96606.63
2019-01-29T00:17:40.284Z,96607.38
2019-01-29T00:18:43.072Z,96606.88
2019-01-29T00:19:47.139Z,96612.97
2019-01-29T00:20:49.690Z,96607.95
2019-01-29T00:21:52.711Z,96605.30
2019-01-29T00:22:55.087Z,96601.56
2019-01-29T00:23:57.875Z,96601.56
2019-01-29T00:25:00.366Z,96603.97
2019-01-29T00:26:02.885Z,96600.53
2019-01-29T00:27:05.255Z,96606.34
2019-01-29T00:28:09.034Z,96601.56
2019-01-29T00:29:12.500Z,96601.56
2019-01-29T00:30:15.339Z,96607.38
2019-01-29T00:31:17.763Z,96603.90
2019-01-29T00:32:20.232Z,96603.90
2019-01-29T00:33:22.675Z,96606.05
2019-01-29T00:34:25.135Z,96606.88
2019-01-29T00:35:27.503Z,96603.90
2019-01-29T00:36:29.928Z,96610.23
2019-01-29T00:37:32.296Z,96613.42
2019-01-29T00:38:35.083Z,96616.66
2019-01-29T00:39:38.683Z,96617.70
2019-01-29T00:40:41.153Z,96610.77
2019-01-29T00:41:43.683Z,96623.00
2019-01-29T00:42:47.851Z,96617.41
2019-01-29T00:43:50.252Z,96617.41
2019-01-29T00:44:53.227Z,96626.69
2019-01-29T00:45:55.703Z,96635.98
2019-01-29T00:46:59.545Z,96631.17
2019-01-29T00:48:01.945Z,96628.81
2019-01-29T00:49:04.799Z,96631.47
2019-01-29T00:50:07.597Z,96631.47
2019-01-29T00:51:10.309Z,96628.02
2019-01-29T00:52:13.499Z,96633.33
2019-01-29T00:53:16.076Z,96633.33
2019-01-29T00:54:18.824Z,96631.67
2019-01-29T00:55:22.036Z,96629.84
2019-01-29T00:56:24.556Z,96628.52
2019-01-29T00:57:26.996Z,96630.88
2019-01-29T00:58:29.550Z,96636.19
2019-01-29T00:59:32.340Z,96631.38
2019-01-29T01:00:34.928Z,96631.38
2019-01-29T01:01:37.382Z,96634.33
2019-01-29T01:02:41.067Z,96639.13
2019-01-29T01:03:43.537Z,96643.11
2019-01-29T01:04:46.020Z,96638.63
2019-01-29T01:05:48.415Z,96640.46
2019-01-29T01:06:50.908Z,96639.63
2019-01-29T01:07:53.303Z,96640.96
2019-01-29T01:08:57.124Z,96640.96
2019-01-29T01:10:00.802Z,96642.61
2019-01-29T01:11:04.812Z,96642.61
2019-01-29T01:12:07.219Z,96635.45
2019-01-29T01:13:09.954Z,96640.33
2019-01-29T01:14:12.467Z,96646.42
2019-01-29T01:15:15.351Z,96646.42
2019-01-29T01:16:18.159Z,96639.58
2019-01-29T01:17:21.152Z,96633.45
2019-01-29T01:18:23.824Z,96629.80
2019-01-29T01:19:26.524Z,96631.91
2019-01-29T01:20:28.934Z,96631.91
2019-01-29T01:21:31.343Z,96639.08
2019-01-29T01:22:33.891Z,96633.45
2019-01-29T01:23:36.753Z,96635.81
2019-01-29T01:24:39.302Z,96636.34
2019-01-29T01:25:41.833Z,96636.11
2019-01-29T01:26:44.658Z,96636.11
2019-01-29T01:27:47.828Z,96636.11
2019-01-29T01:28:50.499Z,96634.56
2019-01-29T01:29:53.857Z,96632.45
2019-01-29T01:30:56.497Z,96632.45
2019-01-29T01:31:59.961Z,96631.91
2019-01-29T01:33:02.425Z,96631.91
2019-01-29T01:34:04.879Z,96624.48
2019-01-29T01:35:07.348Z,96631.70
2019-01-29T01:36:09.773Z,96631.70
2019-01-29T01:37:14.120Z,96631.91
2019-01-29T01:38:17.924Z,96631.91
2019-01-29T01:39:20.859Z,96631.13
2019-01-29T01:40:24.990Z,96631.13
2019-01-29T01:41:27.654Z,96632.13
2019-01-29T01:42:30.982Z,96631.33
2019-01-29T01:43:34.048Z,96630.22
2019-01-29T01:44:36.756Z,96630.22
2019-01-29T01:45:39.400Z,96627.06
2019-01-29T01:46:42.200Z,96628.91
2019-01-29T01:47:44.618Z,96628.91
2019-01-29T01:48:47.407Z,96630.22
2019-01-29T01:49:49.827Z,96630.43
2019-01-29T01:50:52.276Z,96626.98
2019-01-29T01:51:54.718Z,96626.98
2019-01-29T01:52:59.333Z,96629.63
2019-01-29T01:54:01.752Z,96629.63
2019-01-29T01:55:06.059Z,96636.48
2019-01-29T01:56:08.469Z,96632.50
2019-01-29T01:57:11.401Z,96630.88
2019-01-29T01:58:13.770Z,96633.00
2019-01-29T01:59:16.489Z,96630.34
2019-01-29T02:00:19.998Z,96635.36
2019-01-29T02:01:22.604Z,96635.36
2019-01-29T02:02:25.263Z,96639.63
2019-01-29T02:03:27.730Z,96640.96
2019-01-29T02:04:30.638Z,96645.98
2019-01-29T02:05:34.059Z,96644.36
2019-01-29T02:06:36.640Z,96642.74
2019-01-29T02:07:39.187Z,96648.84
2019-01-29T02:08:42.780Z,96647.22
2019-01-29T02:09:45.451Z,96644.56
2019-01-29T02:10:49.327Z,96644.56
2019-01-29T02:11:52.268Z,96647.22
2019-01-29T02:12:55.159Z,96641.13
2019-01-29T02:13:57.608Z,96646.42
2019-01-29T02:15:00.260Z,96646.42
2019-01-29T02:16:02.737Z,96646.42
2019-01-29T02:17:07.497Z,96646.42
2019-01-29T02:18:10.119Z,96645.61
2019-01-29T02:19:12.659Z,96642.74
2019-01-29T02:20:15.611Z,96645.10
2019-01-29T02:21:18.430Z,96644.81
2019-01-29T02:22:21.115Z,96652.53
2019-01-29T02:23:23.831Z,96654.39
2019-01-29T02:24:26.402Z,96647.46
2019-01-29T02:25:29.624Z,96658.37
2019-01-29T02:26:33.154Z,96658.37
2019-01-29T02:27:35.565Z,96654.39
2019-01-29T02:28:37.992Z,96654.39
2019-01-29T02:29:40.937Z,96656.22
2019-01-29T02:30:43.408Z,96659.40
2019-01-29T02:31:45.824Z,96659.08
2019-01-29T02:32:48.241Z,96660.41
2019-01-29T02:33:50.988Z,96662.55
2019-01-29T02:34:53.866Z,96661.73
2019-01-29T02:35:56.622Z,96663.05
2019-01-29T02:36:59.240Z,96662.55
2019-01-29T02:38:02.732Z,96669.69
2019-01-29T02:39:07.731Z,96673.17
2019-01-29T02:40:17.466Z,96669.69
2019-01-29T02:41:20.041Z,96669.40
2019-01-29T02:42:22.494Z,96673.08
2019-01-29T02:43:24.868Z,96673.08
2019-01-29T02:44:28.866Z,96670.72
2019-01-29T02:45:31.298Z,96669.40
2019-01-29T02:46:33.790Z,96670.52
2019-01-29T02:47:37.314Z,96668.61
2019-01-29T02:48:39.786Z,96667.03
2019-01-29T02:49:42.519Z,96670.72
2019-01-29T02:50:44.862Z,96661.14
2019-01-29T02:51:47.404Z,96661.14
2019-01-29T02:52:50.303Z,96678.89
2019-01-29T02:53:52.682Z,96676.23
2019-01-29T02:54:56.749Z,96677.06
2019-01-29T02:56:00.252Z,96674.12
2019-01-29T02:57:02.847Z,96677.56
2019-01-29T02:58:07.130Z,96677.56
2019-01-29T02:59:09.447Z,96677.36
2019-01-29T03:00:17.037Z,96685.31
2019-01-29T03:01:22.127Z,96685.02
2019-01-29T03:02:24.636Z,96681.25
2019-01-29T03:03:26.981Z,96684.20
2019-01-29T03:04:29.550Z,96684.20
2019-01-29T03:05:32.025Z,96682.66
2019-01-29T03:06:35.906Z,96681.55
2019-01-29T03:07:38.320Z,96686.34
2019-01-29T03:08:40.698Z,96687.38
2019-01-29T03:09:43.027Z,96685.52
2019-01-29T03:10:45.420Z,96685.52
2019-01-29T03:11:49.716Z,96689.50
2019-01-29T03:12:53.704Z,96686.34
2019-01-29T03:13:56.471Z,96685.23
2019-01-29T03:15:00.270Z,96692.69
2019-01-29T03:16:02.621Z,96686.55
2019-01-29T03:17:05.053Z,96686.55
2019-01-29T03:18:07.420Z,96688.71
2019-01-29T03:19:10.075Z,96692.39
2019-01-29T03:20:13.015Z,96693.48
2019-01-29T03:21:15.489Z,96691.06
2019-01-29T03:22:18.208Z,96694.52
2019-01-29T03:23:27.212Z,96700.35
2019-01-29T03:24:25.156Z,96699.03
2019-01-29T03:25:27.567Z,96699.03
2019-01-29T03:26:29.988Z,96695.26
2019-01-29T03:27:32.383Z,96701.06
2019-01-29T03:28:35.915Z,96695.47
2019-01-29T03:29:38.324Z,96704.75
2019-01-29T03:30:42.391Z,96704.25
2019-01-29T03:31:44.888Z,96698.12
2019-01-29T03:32:47.412Z,96699.95
2019-01-29T03:33:50.821Z,96703.13
2019-01-29T03:34:53.247Z,96701.80
2019-01-29T03:35:55.671Z,96707.70
2019-01-29T03:36:58.026Z,96713.83
2019-01-29T03:38:01.884Z,96706.66
2019-01-29T03:39:07.350Z,96717.27
2019-01-29T03:40:12.415Z,96720.25
2019-01-29T03:41:15.040Z,96720.25
2019-01-29T03:42:17.728Z,96713.62
2019-01-29T03:43:20.596Z,96722.37
2019-01-29T03:44:23.070Z,96722.37
2019-01-29T03:45:25.742Z,96717.59
2019-01-29T03:46:28.114Z,96716.56
2019-01-29T03:47:30.702Z,96721.87
2019-01-29T03:48:33.066Z,96718.39
2019-01-29T03:49:35.687Z,96718.39
2019-01-29T03:50:38.174Z,96725.55
2019-01-29T03:51:40.751Z,96721.25
2019-01-29T03:52:43.411Z,96725.77
2019-01-29T03:53:46.019Z,96718.02
2019-01-29T03:54:48.690Z,96723.31
2019-01-29T03:55:51.129Z,96724.14
2019-01-29T03:56:54.657Z,96721.78
2019-01-29T03:57:57.152Z,96725.47
2019-01-29T03:58:59.557Z,96725.47
2019-01-29T04:00:02.235Z,96722.28
2019-01-29T04:01:05.828Z,96719.63
2019-01-29T04:02:08.251Z,96718.30
2019-01-29T04:03:10.697Z,96723.82
2019-01-29T04:04:13.579Z,96728.63
2019-01-29T04:05:16.007Z,96729.95
2019-01-29T04:06:18.600Z,96729.95
2019-01-29T04:07:22.618Z,96732.60
2019-01-29T04:08:26.469Z,96733.63
2019-01-29T04:09:28.815Z,96733.63
2019-01-29T04:10:31.240Z,96732.10
2019-01-29T04:11:33.765Z,96732.31
2019-01-29T04:12:36.934Z,96733.92
2019-01-29T04:13:40.757Z,96739.73
2019-01-29T04:14:43.305Z,96728.83
2019-01-29T04:15:46.242Z,96734.42
2019-01-29T04:16:48.738Z,96731.48
2019-01-29T04:17:54.729Z,96734.14
2019-01-29T04:18:57.224Z,96734.14
2019-01-29T04:19:59.706Z,96735.25
2019-01-29T04:21:02.132Z,96743.95
2019-01-29T04:22:05.676Z,96746.07
2019-01-29T04:23:09.796Z,96745.57
2019-01-29T04:24:12.288Z,96754.86
2019-01-29T04:25:14.772Z,96752.41
2019-01-29T04:26:17.240Z,96747.64
2019-01-29T04:27:19.956Z,96751.91
2019-01-29T04:28:22.443Z,96746.07
2019-01-29T04:29:24.958Z,96757.72
2019-01-29T04:30:27.507Z,96751.08
2019-01-29T04:31:29.815Z,96750.29
2019-01-29T04:32:36.152Z,96744.45
2019-01-29T04:33:38.545Z,96744.45
2019-01-29T04:34:41.374Z,96752.41
2019-01-29T04:35:43.763Z,96752.41
2019-01-29T04:36:46.623Z,96743.87
2019-01-29T04:37:49.151Z,96743.87
2019-01-29T04:38:51.647Z,96745.48
2019-01-29T04:39:54.039Z,96745.48
2019-01-29T04:40:56.682Z,96748.97
2019-01-29T04:41:59.288Z,96748.97
2019-01-29T04:43:01.878Z,96745.98
2019-01-29T04:44:04.672Z,96747.84
2019-01-29T04:45:08.896Z,96745.48
2019-01-29T04:46:11.288Z,96745.48
2019-01-29T04:47:13.783Z,96746.31
2019-01-29T04:48:17.235Z,96756.59
2019-01-29T04:49:21.506Z,96756.59
2019-01-29T04:50:24.083Z,96758.25
2019-01-29T04:51:26.525Z,96758.75
2019-01-29T04:52:28.902Z,96757.72
2019-01-29T04:53:31.665Z,96759.58
2019-01-29T04:54:34.045Z,96763.84
2019-01-29T04:55:36.655Z,96760.37
2019-01-29T04:56:39.037Z,96759.58
2019-01-29T04:57:41.705Z,96760.90
2019-01-29T04:58:44.518Z,96763.84
2019-01-29T04:59:50.637Z,96769.16
2019-01-29T05:00:52.982Z,96769.16
2019-01-29T05:01:55.364Z,96765.38
2019-01-29T05:02:57.924Z,96768.33
2019-01-29T05:04:00.811Z,96770.19
2019-01-29T05:05:04.547Z,96770.69
2019-01-29T05:06:07.044Z,96769.66
2019-01-29T05:07:10.022Z,96772.84
2019-01-29T05:08:12.567Z,96771.52
2019-01-29T05:09:15.031Z,96771.19
2019-01-29T05:10:19.005Z,96766.41
2019-01-29T05:11:21.484Z,96771.52
2019-01-29T05:12:23.922Z,96768.86
2019-01-29T05:13:26.348Z,96768.86
2019-01-29T05:14:28.887Z,96775.48
2019-01-29T05:15:31.584Z,96779.77
2019-01-29T05:16:34.794Z,96779.77
2019-01-29T05:17:38.292Z,96779.47
2019-01-29T05:18:41.414Z,96777.31
2019-01-29T05:19:43.956Z,96777.31
2019-01-29T05:20:46.904Z,96777.81
2019-01-29T05:21:49.418Z,96777.81
2019-01-29T05:22:51.817Z,96786.52
2019-01-29T05:23:54.198Z,96786.52
2019-01-29T05:24:56.859Z,96788.95
2019-01-29T05:25:59.233Z,96788.95
2019-01-29T05:27:02.776Z,96782.03
2019-01-29T05:28:05.293Z,96789.16
2019-01-29T05:29:09.447Z,96786.02
2019-01-29T05:30:14.758Z,96786.02
2019-01-29T05:31:17.255Z,96782.63
2019-01-29T05:32:19.719Z,96792.48
2019-01-29T05:33:23.365Z,96790.75
2019-01-29T05:34:25.773Z,96794.73
2019-01-29T05:35:28.342Z,96794.73
2019-01-29T05:36:30.794Z,96793.20
2019-01-29T05:37:33.195Z,96793.20
2019-01-29T05:38:35.803Z,96791.25
2019-01-29T05:39:38.539Z,96791.70
2019-01-29T05:40:41.019Z,96791.70
2019-01-29T05:41:43.440Z,96798.53
2019-01-29T05:42:46.233Z,96795.20
2019-01-29T05:43:48.830Z,96803.55
2019-01-29T05:44:51.679Z,96801.69
2019-01-29T05:45:55.269Z,96799.19
2019-01-29T05:46:58.413Z,96799.19
2019-01-29T05:48:01.119Z,96805.08
2019-01-29T05:49:03.831Z,96802.34
2019-01-29T05:50:07.033Z,96805.81
2019-01-29T05:51:09.453Z,96800.42
2019-01-29T05:52:12.486Z,96811.83
2019-01-29T05:53:15.447Z,96810.00
2019-01-29T05:54:17.888Z,96815.30
2019-01-29T05:55:20.401Z,96815.30
2019-01-29T05:56:24.485Z,96815.51
2019-01-29T05:57:27.464Z,96827.65
2019-01-29T05:58:29.871Z,96818.69
2019-01-29T05:59:32.404Z,96818.69
2019-01-29T06:00:37.643Z,96823.08
2019-01-29T06:01:40.219Z,96822.05
2019-01-29T06:02:42.544Z,96822.05
2019-01-29T06:03:46.143Z,96823.91
2019-01-29T06:04:48.474Z,96824.91
2019-01-29T06:05:50.867Z,96821.75
2019-01-29T06:06:53.450Z,96826.85
2019-01-29T06:07:56.494Z,96825.73
2019-01-29T06:08:59.083Z,96825.73
2019-01-29T06:10:03.192Z,96828.38
2019-01-29T06:11:05.503Z,96829.21
2019-01-29T06:12:08.234Z,96832.56
2019-01-29T06:13:12.019Z,96832.27
2019-01-29T06:14:14.967Z,96832.27
2019-01-29T06:15:18.172Z,96835.69
2019-01-29T06:16:20.801Z,96844.13
2019-01-29T06:17:27.523Z,96843.42
2019-01-29T06:18:28.138Z,96841.80
2019-01-29T06:19:30.608Z,96841.80
2019-01-29T06:20:34.633Z,96848.11
2019-01-29T06:21:37.372Z,96846.01
2019-01-29T06:22:39.870Z,96845.71
2019-01-29T06:23:42.532Z,96849.69
2019-01-29T06:24:45.968Z,96852.64
2019-01-29T06:25:48.433Z,96845.71
2019-01-29T06:26:53.355Z,96845.71
2019-01-29T06:27:56.108Z,96855.20
2019-01-29T06:29:00.690Z,96850.43
2019-01-29T06:30:04.025Z,96854.08
2019-01-29T06:31:06.469Z,96854.08
2019-01-29T06:32:10.214Z,96860.00
2019-01-29T06:33:13.724Z,96857.27
2019-01-29T06:34:16.594Z,96856.97
2019-01-29T06:35:19.208Z,96858.79
2019-01-29T06:36:23.027Z,96863.06
2019-01-29T06:37:25.485Z,96865.42
2019-01-29T06:38:30.160Z,96861.44
2019-01-29T06:39:32.649Z,96861.44
2019-01-29T06:40:35.271Z,96873.38
2019-01-29T06:41:38.322Z,96876.33
2019-01-29T06:42:42.365Z,96879.51
2019-01-29T06:43:44.976Z,96880.51
2019-01-29T06:44:48.199Z,96880.51
2019-01-29T06:45:51.093Z,96886.34
2019-01-29T06:46:53.531Z,96894.30
2019-01-29T06:47:55.952Z,96894.30
2019-01-29T06:48:58.443Z,96894.59
2019-01-29T06:50:00.816Z,96892.97
2019-01-29T06:51:03.233Z,96902.95
2019-01-29T06:52:05.795Z,96902.95
2019-01-29T06:53:08.579Z,96903.78
2019-01-29T06:54:11.241Z,96912.56
2019-01-29T06:55:15.597Z,96912.56
2019-01-29T06:56:18.149Z,96910.70
2019-01-29T06:57:20.635Z,96910.70
2019-01-29T06:58:23.119Z,96915.72
2019-01-29T06:59:25.549Z,96918.57
2019-01-29T07:00:29.434Z,96918.57
2019-01-29T07:01:31.858Z,96916.45
2019-01-29T07:02:34.511Z,96924.17
2019-01-29T07:03:36.871Z,96923.08
2019-01-29T07:04:39.274Z,96923.08
2019-01-29T07:05:41.900Z,96921.22
2019-01-29T07:06:44.370Z,96921.22
2019-01-29T07:07:46.712Z,96921.22
2019-01-29T07:08:49.390Z,96921.22
2019-01-29T07:09:51.714Z,96928.87
2019-01-29T07:10:54.279Z,96923.08
2019-01-29T07:12:01.012Z,96929.91
2019-01-29T07:13:04.030Z,96934.71
2019-01-29T07:14:07.527Z,96934.71
2019-01-29T07:15:18.386Z,96933.16
2019-01-29T07:16:46.554Z,96927.26
2019-01-29T07:17:49.617Z,96934.48
2019-01-29T07:18:59.010Z,96934.48
2019-01-29T07:20:04.406Z,96940.22
2019-01-29T07:21:08.990Z,96939.39
2019-01-29T07:22:11.808Z,96946.84
2019-01-29T07:23:14.321Z,96950.63
2019-01-29T07:24:16.924Z,96950.63
2019-01-29T07:25:19.434Z,96952.15
2019-01-29T07:26:21.814Z,96955.92
2019-01-29T07:27:24.212Z,96955.92
2019-01-29T07:28:26.621Z,96961.23
2019-01-29T07:29:29.568Z,96963.05
2019-01-29T07:30:31.993Z,96956.42
2019-01-29T07:31:34.480Z,96962.56
2019-01-29T07:32:36.894Z,96963.35
2019-01-29T07:33:39.477Z,96963.78
2019-01-29T07:34:42.069Z,96967.77
2019-01-29T07:35:45.293Z,96973.06
2019-01-29T07:36:48.613Z,96975.72
2019-01-29T07:37:52.859Z,96976.52
2019-01-29T07:38:55.339Z,96978.67
2019-01-29T07:39:58.259Z,96979.80
2019-01-29T07:41:00.704Z,96979.80
2019-01-29T07:42:03.685Z,96977.64
2019-01-29T07:43:06.711Z,96980.30
2019-01-29T07:44:09.418Z,96977.34
2019-01-29T07:45:11.871Z,96975.48
2019-01-29T07:46:14.679Z,96973.66
2019-01-29T07:47:17.123Z,96982.45
2019-01-29T07:48:19.580Z,96978.97
2019-01-29T07:49:22.037Z,96978.97
2019-01-29T07:50:24.775Z,96977.84
2019-01-29T07:51:27.373Z,96980.79
2019-01-29T07:52:29.965Z,96981.02
2019-01-29T07:53:32.405Z,96981.02
2019-01-29T07:54:35.447Z,96987.95
2019-01-29T07:55:37.923Z,96990.90
2019-01-29T07:56:40.342Z,96982.64
2019-01-29T07:57:44.268Z,96986.62
2019-01-29T07:58:49.080Z,96986.62
2019-01-29T07:59:51.807Z,96986.09
2019-01-29T08:00:54.477Z,96986.62
2019-01-29T08:01:57.352Z,96989.27
2019-01-29T08:03:00.079Z,96988.55
2019-01-29T08:04:02.682Z,96981.32
2019-01-29T08:05:06.999Z,96981.32
2019-01-29T08:06:09.876Z,96981.32
2019-01-29T08:07:13.535Z,96988.15
2019-01-29T08:08:16.685Z,96985.59
2019-01-29T08:09:21.435Z,96977.84
2019-01-29T08:10:24.745Z,96990.47
2019-01-29T08:11:27.265Z,97000.48
2019-01-29T08:12:30.940Z,97000.48
2019-01-29T08:13:33.638Z,97003.95
2019-01-29T08:14:37.163Z,97006.37
2019-01-29T08:15:39.826Z,97003.42
2019-01-29T08:16:42.304Z,97012.41
2019-01-29T08:17:45.437Z,97021.19
2019-01-29T08:18:49.562Z,97016.59
2019-01-29T08:19:51.972Z,97017.12
2019-01-29T08:20:54.460Z,97012.61
2019-01-29T08:21:58.679Z,97009.36
2019-01-29T08:23:01.448Z,97019.77
2019-01-29T08:24:05.224Z,97026.70
2019-01-29T08:25:08.005Z,97026.70
2019-01-29T08:26:10.407Z,97027.30
2019-01-29T08:27:14.844Z,97016.09
2019-01-29T08:28:18.664Z,97018.74
2019-01-29T08:29:21.270Z,97021.99
2019-01-29T08:30:23.600Z,97022.81
2019-01-29T08:31:26.156Z,97027.30
2019-01-29T08:32:28.520Z,97027.00
2019-01-29T08:33:30.962Z,97027.00
2019-01-29T08:34:33.364Z,97024.05
2019-01-29T08:35:36.083Z,97021.39
2019-01-29T08:36:38.694Z,97031.70
2019-01-29T08:37:41.266Z,97029.65
2019-01-29T08:38:43.711Z,97034.45
2019-01-29T08:39:48.250Z,97030.18
2019-01-29T08:40:50.917Z,97036.87
2019-01-29T08:41:55.989Z,97026.40
2019-01-29T08:42:58.829Z,97032.83
2019-01-29T08:44:01.476Z,97036.81
2019-01-29T08:45:04.653Z,97036.81
2019-01-29T08:46:07.136Z,97041.78
2019-01-29T08:47:10.037Z,97040.78
2019-01-29T08:48:12.825Z,97039.95
2019-01-29T08:49:15.475Z,97038.13
2019-01-29T08:50:20.181Z,97038.93
2019-01-29T08:51:24.223Z,97044.83
2019-01-29T08:52:26.589Z,97044.83
2019-01-29T08:53:29.045Z,97046.89
2019-01-29T08:54:31.429Z,97048.74
2019-01-29T08:55:34.312Z,97046.39
2019-01-29T08:56:36.742Z,97054.55
2019-01-29T08:57:39.255Z,97050.27
2019-01-29T08:58:41.957Z,97050.27
2019-01-29T08:59:44.535Z,97060.97
2019-01-29T09:00:46.968Z,97060.14
2019-01-29T09:01:51.431Z,97066.05
2019-01-29T09:02:53.774Z,97066.28
2019-01-29T09:03:59.117Z,97066.28
2019-01-29T09:05:01.757Z,97064.42
2019-01-29T09:06:04.344Z,97069.73
2019-01-29T09:07:06.874Z,97070.25
2019-01-29T09:08:09.566Z,97070.75
2019-01-29T09:09:13.044Z,97069.13
2019-01-29T09:10:15.917Z,97070.75
2019-01-29T09:11:18.612Z,97068.40
2019-01-29T09:12:21.154Z,97073.50
2019-01-29T09:13:24.600Z,97078.51
2019-01-29T09:14:27.088Z,97069.73
2019-01-29T09:15:29.703Z,97075.66
2019-01-29T09:16:32.177Z,97076.45
2019-01-29T09:17:34.901Z,97076.45
2019-01-29T09:18:38.663Z,97077.38
2019-01-29T09:19:41.094Z,97077.19
2019-01-29T09:20:43.692Z,97083.61
2019-01-29T09:21:47.595Z,97080.33
2019-01-29T09:22:49.965Z,97080.33
2019-01-29T09:23:52.358Z,97080.44
2019-01-29T09:24:54.837Z,97080.44
2019-01-29T09:25:57.222Z,97086.87
2019-01-29T09:27:01.178Z,97086.87
2019-01-29T09:28:04.763Z,97085.04
2019-01-29T09:29:07.797Z,97086.37
2019-01-29T09:30:12.228Z,97089.52
2019-01-29T09:31:15.763Z,97091.57
2019-01-29T09:32:19.165Z,97089.22
2019-01-29T09:33:21.567Z,97095.22
2019-01-29T09:34:23.999Z,97095.02
2019-01-29T09:35:26.565Z,97093.69
2019-01-29T09:36:29.036Z,97095.13
2019-01-29T09:37:31.515Z,97095.13
2019-01-29T09:38:33.943Z,97088.39
2019-01-29T09:39:36.823Z,97087.16
2019-01-29T09:40:39.203Z,97087.16
2019-01-29T09:41:42.782Z,97089.52
2019-01-29T09:42:45.411Z,97086.03
2019-01-29T09:43:48.012Z,97082.06
2019-01-29T09:44:51.935Z,97085.23
2019-01-29T09:45:54.277Z,97088.19
2019-01-29T09:46:56.805Z,97088.19
2019-01-29T09:47:59.229Z,97093.80
2019-01-29T09:49:01.614Z,97100.42
2019-01-29T09:50:04.625Z,97088.69
2019-01-29T09:51:07.031Z,97095.84
2019-01-29T09:52:09.409Z,97092.37
2019-01-29T09:53:11.761Z,97091.05
2019-01-29T09:54:14.271Z,97096.75
2019-01-29T09:55:17.737Z,97096.75
2019-01-29T09:56:20.153Z,97090.94
2019-01-29T09:57:22.541Z,97092.27
2019-01-29T09:58:25.395Z,97086.87
2019-01-29T09:59:27.781Z,97094.82
2019-01-29T10:00:33.079Z,97093.80
2019-01-29T10:01:36.817Z,97094.82
2019-01-29T10:02:39.194Z,97096.15
2019-01-29T10:03:42.282Z,97096.15
2019-01-29T10:04:44.708Z,97102.28
2019-01-29T10:05:48.205Z,97097.77
2019-01-29T10:06:50.744Z,97097.77
2019-01-29T10:07:53.329Z,97103.08
2019-01-29T10:08:55.904Z,97102.58
2019-01-29T10:09:58.623Z,97097.47
2019-01-29T10:11:01.075Z,97100.42
2019-01-29T10:12:03.524Z,97100.42
2019-01-29T10:13:06.117Z,97100.42
2019-01-29T10:14:08.524Z,97097.67
2019-01-29T10:15:14.242Z,97096.15
2019-01-29T10:16:17.159Z,97096.15
2019-01-29T10:17:20.247Z,97101.55
2019-01-29T10:18:22.624Z,97100.42
2019-01-29T10:19:25.183Z,97101.45
2019-01-29T10:20:27.718Z,97102.58
2019-01-29T10:21:30.137Z,97106.86
2019-01-29T10:22:32.614Z,97106.86
2019-01-29T10:23:35.051Z,97105.03
2019-01-29T10:24:37.544Z,97106.86
2019-01-29T10:25:40.084Z,97096.15
2019-01-29T10:26:42.497Z,97100.13
2019-01-29T10:27:45.269Z,97104.94
2019-01-29T10:28:47.845Z,97106.03
2019-01-29T10:29:50.227Z,97104.11
2019-01-29T10:30:53.052Z,97098.80
2019-01-29T10:31:55.471Z,97098.80
2019-01-29T10:32:57.883Z,97102.58
2019-01-29T10:34:01.653Z,97105.03
2019-01-29T10:35:05.338Z,97105.03
2019-01-29T10:36:07.943Z,97109.21
2019-01-29T10:37:10.621Z,97106.03
2019-01-29T10:38:13.825Z,97098.91
2019-01-29T10:39:16.340Z,97106.36
2019-01-29T10:40:20.597Z,97105.53
2019-01-29T10:41:23.189Z,97109.21
2019-01-29T10:42:25.673Z,97109.21
2019-01-29T10:43:28.231Z,97110.23
2019-01-29T10:44:31.953Z,97114.31
2019-01-29T10:45:34.525Z,97110.84
2019-01-29T10:46:37.141Z,97121.34
2019-01-29T10:47:39.777Z,97116.87
2019-01-29T10:48:42.301Z,97120.62
2019-01-29T10:49:44.933Z,97115.02
2019-01-29T10:50:48.326Z,97122.97
2019-01-29T10:51:51.250Z,97117.66
2019-01-29T10:52:54.058Z,97115.31
2019-01-29T10:53:56.531Z,97121.45
2019-01-29T10:54:59.257Z,97124.30
2019-01-29T10:56:01.687Z,97124.30
2019-01-29T10:57:04.191Z,97121.64
2019-01-29T10:58:06.714Z,97123.27
2019-01-29T10:59:09.101Z,97116.87
2019-01-29T11:00:14.747Z,97121.94
2019-01-29T11:01:17.318Z,97121.94
2019-01-29T11:02:19.704Z,97125.92
2019-01-29T11:03:23.252Z,97130.13
2019-01-29T11:04:25.598Z,97127.48
2019-01-29T11:05:29.544Z,97128.27
2019-01-29T11:06:33.114Z,97127.97
2019-01-29T11:07:36.122Z,97133.58
2019-01-29T11:08:38.642Z,97137.06
2019-01-29T11:09:41.390Z,97136.53
2019-01-29T11:10:44.396Z,97136.53
2019-01-29T11:11:48.300Z,97138.88
2019-01-29T11:12:50.804Z,97141.83
2019-01-29T11:13:53.236Z,97140.51
2019-01-29T11:14:57.913Z,97138.28
2019-01-29T11:16:00.514Z,97143.06
2019-01-29T11:17:03.268Z,97141.73
2019-01-29T11:18:08.232Z,97143.06
2019-01-29T11:19:10.636Z,97143.06
2019-01-29T11:20:14.056Z,97147.86
2019-01-29T11:21:16.599Z,97151.34
2019-01-29T11:22:19.695Z,97145.02
2019-01-29T11:23:23.137Z,97149.80
2019-01-29T11:24:27.576Z,97152.14
2019-01-29T11:25:31.805Z,97146.84
2019-01-29T11:26:34.335Z,97149.19
2019-01-29T11:27:36.831Z,97152.14
2019-01-29T11:28:39.206Z,97149.48
2019-01-29T11:29:41.809Z,97149.48
2019-01-29T11:30:44.537Z,97152.14
2019-01-29T11:31:46.994Z,97152.45
2019-01-29T11:32:49.345Z,97149.80
2019-01-29T11:33:53.569Z,97149.80
2019-01-29T11:34:56.206Z,97157.45
2019-01-29T11:35:59.538Z,97157.15
2019-01-29T11:37:02.151Z,97162.25
2019-01-29T11:38:04.753Z,97162.25
2019-01-29T11:39:13.138Z,97159.30
2019-01-29T11:40:18.959Z,97159.30
2019-01-29T11:41:21.333Z,97154.80
2019-01-29T11:42:24.229Z,97157.45
2019-01-29T11:43:26.677Z,97157.45
2019-01-29T11:44:29.207Z,97161.42
2019-01-29T11:45:34.077Z,97151.34
2019-01-29T11:46:36.469Z,97150.02
2019-01-29T11:47:38.984Z,97154.30
2019-01-29T11:48:41.409Z,97153.17
2019-01-29T11:49:44.058Z,97150.52
2019-01-29T11:50:46.874Z,97150.32
2019-01-29T11:51:49.482Z,97147.37
2019-01-29T11:52:51.970Z,97153.17
2019-01-29T11:53:55.030Z,97152.14
2019-01-29T11:54:57.781Z,97152.14
2019-01-29T11:56:04.727Z,97155.83
2019-01-29T11:57:05.003Z,97162.55
2019-01-29T11:58:09.914Z,97157.15
2019-01-29T11:59:12.410Z,97165.41
2019-01-29T12:00:20.907Z,97165.10
2019-01-29T12:01:25.507Z,97165.10
2019-01-29T12:02:28.730Z,97162.75
2019-01-29T12:03:31.192Z,97164.71
2019-01-29T12:04:35.972Z,97165.70
2019-01-29T12:05:38.454Z,97169.69
2019-01-29T12:06:41.136Z,97168.05
2019-01-29T12:07:43.450Z,97168.05
2019-01-29T12:08:45.997Z,97172.03
2019-01-29T12:09:49.244Z,97170.70
2019-01-29T12:10:51.686Z,97171.01
2019-01-29T12:11:54.130Z,97172.86
2019-01-29T12:12:56.520Z,97177.64
2019-01-29T12:13:58.846Z,97177.64
2019-01-29T12:15:03.837Z,97171.73
2019-01-29T12:16:06.456Z,97171.73
2019-01-29T12:17:09.002Z,97169.08
2019-01-29T12:18:11.426Z,97171.44
2019-01-29T12:19:14.166Z,97176.02
2019-01-29T12:20:16.585Z,97176.64